createdAt,value
2022-08-05T00:01:19.975Z,1.80
2022-08-05T00:02:07.382Z,2.10
2022-08-05T00:03:07.626Z,1.80
2022-08-05T00:04:12.040Z,1.90
2022-08-05T00:06:01.858Z,1.60
2022-08-05T00:06:30.676Z,1.80
2022-08-05T00:07:59.748Z,1.70
2022-08-05T00:08:34.347Z,2.10
2022-08-05T00:09:34.078Z,1.80
2022-08-05T00:10:38.469Z,1.90
2022-08-05T00:11:48.666Z,2.00
2022-08-05T00:12:55.974Z,1.70
2022-08-05T00:13:53.077Z,1.90
2022-08-05T00:14:56.124Z,1.90
2022-08-05T00:16:00.621Z,1.50
2022-08-05T00:17:04.933Z,1.40
2022-08-05T00:18:09.358Z,1.60
2022-08-05T00:19:13.762Z,1.80
2022-08-05T00:20:20.202Z,1.60
2022-08-05T00:21:22.581Z,1.50
2022-08-05T00:22:26.978Z,1.60
2022-08-05T00:23:45.863Z,1.60
2022-08-05T00:24:35.799Z,2.00
2022-08-05T00:25:45.544Z,2.00
2022-08-05T00:26:51.937Z,2.20
2022-08-05T00:27:49.010Z,2.00
2022-08-05T00:28:53.447Z,2.00
2022-08-05T00:29:57.842Z,2.30
2022-08-05T00:31:04.272Z,2.00
2022-08-05T00:32:13.013Z,2.00
2022-08-05T00:33:15.652Z,2.20
2022-08-05T00:34:53.257Z,2.20
2022-08-05T00:35:20.300Z,1.90
2022-08-05T00:37:12.338Z,1.90
2022-08-05T00:37:35.824Z,2.20
2022-08-05T00:38:34.041Z,2.10
2022-08-05T00:39:44.262Z,2.20
2022-08-05T00:40:41.964Z,2.40
2022-08-05T00:41:46.777Z,2.20
2022-08-05T00:42:50.763Z,2.20
2022-08-05T00:43:55.183Z,2.20
2022-08-05T00:44:59.585Z,2.00
2022-08-05T00:46:03.983Z,2.30
2022-08-05T00:47:08.385Z,2.50
2022-08-05T00:48:12.797Z,2.30
2022-08-05T00:49:17.235Z,2.30
2022-08-05T00:50:21.635Z,2.30
2022-08-05T00:51:51.884Z,2.60
2022-08-05T00:52:30.446Z,2.70
2022-08-05T00:54:00.253Z,2.70
2022-08-05T00:54:39.276Z,2.50
2022-08-05T00:55:43.886Z,2.60
2022-08-05T00:56:51.751Z,2.80
2022-08-05T00:57:58.411Z,2.60
2022-08-05T00:58:56.906Z,2.70
2022-08-05T01:00:01.314Z,2.50
2022-08-05T01:01:06.050Z,2.80
2022-08-05T01:02:10.116Z,3.20
2022-08-05T01:03:22.961Z,2.40
2022-08-05T01:04:19.949Z,2.40
2022-08-05T01:05:23.369Z,2.50
2022-08-05T01:06:32.659Z,2.80
2022-08-05T01:07:32.186Z,2.80
2022-08-05T01:08:43.366Z,2.90
2022-08-05T01:09:41.016Z,2.70
2022-08-05T01:10:51.642Z,3.20
2022-08-05T01:11:49.818Z,3.00
2022-08-05T01:13:05.359Z,3.00
2022-08-05T01:13:59.724Z,3.20
2022-08-05T01:15:04.047Z,3.20
2022-08-05T01:16:07.495Z,2.80
2022-08-05T01:17:11.888Z,3.20
2022-08-05T01:18:16.299Z,3.30
2022-08-05T01:19:20.718Z,3.40
2022-08-05T01:20:25.130Z,3.40
2022-08-05T01:21:38.459Z,3.80
2022-08-05T01:22:34.131Z,3.80
2022-08-05T01:23:38.359Z,3.80
2022-08-05T01:24:42.791Z,3.80
2022-08-05T01:25:53.251Z,4.00
2022-08-05T01:26:51.592Z,3.80
2022-08-05T01:27:56.035Z,3.50
2022-08-05T01:29:03.525Z,3.50
2022-08-05T01:30:04.841Z,3.90
2022-08-05T01:31:09.246Z,3.90
2022-08-05T01:32:18.402Z,3.50
2022-08-05T01:33:19.730Z,3.70
2022-08-05T01:34:22.481Z,3.60
2022-08-05T01:35:51.873Z,3.90
2022-08-05T01:36:31.292Z,4.10
2022-08-05T01:37:36.614Z,4.00
2022-08-05T01:38:40.101Z,4.00
2022-08-05T01:39:47.730Z,3.90
2022-08-05T01:40:48.932Z,4.00
2022-08-05T01:41:53.353Z,4.00
2022-08-05T01:42:57.755Z,4.10
2022-08-05T01:44:02.161Z,4.30
2022-08-05T01:45:08.194Z,4.40
2022-08-05T01:46:16.251Z,4.20
2022-08-05T01:47:15.423Z,3.80
2022-08-05T01:48:19.833Z,4.00
2022-08-05T01:49:24.947Z,4.20
2022-08-05T01:50:29.695Z,4.50
2022-08-05T01:51:33.093Z,4.40
2022-08-05T01:52:37.513Z,4.20
2022-08-05T01:53:57.064Z,4.30
2022-08-05T01:54:46.511Z,4.30
2022-08-05T01:55:50.748Z,4.20
2022-08-05T01:58:10.036Z,4.50
2022-08-05T01:58:14.862Z,4.50
2022-08-05T01:59:03.995Z,4.90
2022-08-05T02:00:12.056Z,4.20
2022-08-05T02:01:12.835Z,4.70
2022-08-05T02:02:17.281Z,4.10
2022-08-05T02:03:28.930Z,4.50
2022-08-05T02:04:26.078Z,4.60
2022-08-05T02:05:30.487Z,4.10
2022-08-05T02:06:38.190Z,4.50
2022-08-05T02:07:39.316Z,4.70
2022-08-05T02:08:54.762Z,4.80
2022-08-05T02:09:48.150Z,4.70
2022-08-05T02:10:52.547Z,4.40
2022-08-05T02:11:56.958Z,4.80
2022-08-05T02:13:01.358Z,4.40
2022-08-05T02:14:05.771Z,4.60
2022-08-05T02:15:12.111Z,5.50
2022-08-05T02:16:16.432Z,5.00
2022-08-05T02:18:14.508Z,5.30
2022-08-05T02:18:31.562Z,5.10
2022-08-05T02:19:27.826Z,4.90
2022-08-05T02:20:32.268Z,5.70
2022-08-05T02:21:38.052Z,5.00
2022-08-05T02:22:41.092Z,4.80
2022-08-05T02:23:46.016Z,5.50
2022-08-05T02:24:52.144Z,5.40
2022-08-05T02:25:54.328Z,5.60
2022-08-05T02:26:58.747Z,5.40
2022-08-05T02:28:03.143Z,5.70
2022-08-05T02:29:07.557Z,5.10
2022-08-05T02:30:11.980Z,5.30
2022-08-05T02:31:16.392Z,5.20
2022-08-05T02:32:24.251Z,5.30
2022-08-05T02:33:36.125Z,5.50
2022-08-05T02:34:29.608Z,4.80
2022-08-05T02:35:37.676Z,5.00
2022-08-05T02:36:38.451Z,5.30
2022-08-05T02:37:42.851Z,5.40
2022-08-05T02:38:53.126Z,5.10
2022-08-05T02:39:51.869Z,5.00
2022-08-05T02:40:56.083Z,5.10
2022-08-05T02:42:01.588Z,5.30
2022-08-05T02:43:04.884Z,5.40
2022-08-05T02:44:12.363Z,4.70
2022-08-05T02:45:13.723Z,4.90
2022-08-05T02:46:18.144Z,5.10
2022-08-05T02:47:22.721Z,5.30
2022-08-05T02:48:29.104Z,5.40
2022-08-05T02:49:36.548Z,5.20
2022-08-05T02:50:35.801Z,5.50
2022-08-05T02:52:04.416Z,5.70
2022-08-05T02:52:44.603Z,5.20
2022-08-05T02:53:49.024Z,5.70
2022-08-05T02:54:53.425Z,5.40
2022-08-05T02:56:00.318Z,5.70
2022-08-05T02:57:02.284Z,5.80
2022-08-05T02:58:09.460Z,5.40
2022-08-05T02:59:11.115Z,6.10
2022-08-05T03:00:15.517Z,5.50
2022-08-05T03:01:19.966Z,6.20
2022-08-05T03:02:24.347Z,5.70
2022-08-05T03:03:34.062Z,5.70
2022-08-05T03:04:33.152Z,5.60
2022-08-05T03:06:53.818Z,6.10
2022-08-05T03:06:54.854Z,6.30
2022-08-05T03:08:06.974Z,5.70
2022-08-05T03:08:52.331Z,5.80
2022-08-05T03:09:55.216Z,5.90
2022-08-05T03:11:55.509Z,5.40
2022-08-05T03:12:04.053Z,6.20
2022-08-05T03:14:14.428Z,6.00
2022-08-05T03:15:18.885Z,5.70
2022-08-05T03:16:23.352Z,5.70
2022-08-05T03:17:27.804Z,6.20
2022-08-05T03:18:32.244Z,6.00
2022-08-05T03:19:36.685Z,6.10
2022-08-05T03:20:48.770Z,5.90
2022-08-05T03:21:48.650Z,5.50
2022-08-05T03:22:50.602Z,6.40
2022-08-05T03:23:54.517Z,6.40
2022-08-05T03:25:11.573Z,6.10
2022-08-05T03:26:04.497Z,6.00
2022-08-05T03:27:07.899Z,5.90
2022-08-05T03:28:13.907Z,6.50
2022-08-05T03:29:17.454Z,6.20
2022-08-05T03:30:21.248Z,6.20
2022-08-05T03:31:55.767Z,6.20
2022-08-05T03:32:30.924Z,6.30
2022-08-05T03:33:50.898Z,6.40
2022-08-05T03:34:39.099Z,6.70
2022-08-05T03:35:43.550Z,6.50
2022-08-05T03:36:48.026Z,6.20
2022-08-05T03:37:53.541Z,6.30
2022-08-05T03:38:56.929Z,6.00
2022-08-05T03:40:03.819Z,6.10
2022-08-05T03:41:08.396Z,6.20
2022-08-05T03:42:10.329Z,6.00
2022-08-05T03:43:59.017Z,6.20
2022-08-05T03:44:19.859Z,6.60
2022-08-05T03:45:23.840Z,6.30
2022-08-05T03:46:29.665Z,6.40
2022-08-05T03:47:35.502Z,6.30
2022-08-05T03:48:37.091Z,6.30
2022-08-05T03:49:51.585Z,6.60
2022-08-05T03:50:46.001Z,6.90
2022-08-05T03:52:37.324Z,6.70
2022-08-05T03:55:07.165Z,6.40
2022-08-05T03:55:49.953Z,6.50
2022-08-05T03:56:05.294Z,6.40
2022-08-05T03:56:17.149Z,6.70
2022-08-05T03:57:16.762Z,7.20
2022-08-05T03:58:17.231Z,7.20
2022-08-05T03:59:21.704Z,7.00
2022-08-05T04:00:26.151Z,6.80
2022-08-05T04:01:32.234Z,6.70
2022-08-05T04:02:38.468Z,6.80
2022-08-05T04:03:39.552Z,6.50
2022-08-05T04:04:44.909Z,7.00
2022-08-05T04:05:48.463Z,6.90
2022-08-05T04:06:52.953Z,6.80
2022-08-05T04:07:59.034Z,6.70
2022-08-05T04:09:01.875Z,7.30
2022-08-05T04:10:06.343Z,7.60
2022-08-05T04:11:10.786Z,7.30
2022-08-05T04:12:23.749Z,7.10
2022-08-05T04:13:19.726Z,7.10
2022-08-05T04:14:30.179Z,7.20
2022-08-05T04:15:33.137Z,7.10
2022-08-05T04:16:33.085Z,8.20
2022-08-05T04:17:56.610Z,8.30
2022-08-05T04:18:42.030Z,7.90
2022-08-05T04:19:46.484Z,8.20
2022-08-05T04:20:50.935Z,9.10
2022-08-05T04:22:10.323Z,8.70
2022-08-05T04:22:59.884Z,8.80
2022-08-05T04:24:06.219Z,9.10
2022-08-05T04:25:08.786Z,9.00
2022-08-05T04:26:13.642Z,9.80
2022-08-05T04:27:17.745Z,8.70
2022-08-05T04:28:30.859Z,9.60
2022-08-05T04:29:27.169Z,10.10
2022-08-05T04:30:31.129Z,10.30
2022-08-05T04:31:38.749Z,10.50
2022-08-05T04:32:40.101Z,11.40
2022-08-05T04:34:19.200Z,11.10
2022-08-05T04:34:49.027Z,11.10
2022-08-05T04:36:10.865Z,11.50
2022-08-05T04:36:58.728Z,11.50
2022-08-05T04:38:06.791Z,11.80
2022-08-05T04:39:07.819Z,11.90
2022-08-05T04:40:12.158Z,11.80
2022-08-05T04:41:16.627Z,11.30
2022-08-05T04:42:21.127Z,12.40
2022-08-05T04:43:26.035Z,11.70
2022-08-05T04:59:55.917Z,12.60
2022-08-05T05:01:00.401Z,12.60
2022-08-05T05:02:35.474Z,13.10
2022-08-05T05:03:09.335Z,13.20
2022-08-05T05:04:13.733Z,14.10
2022-08-05T05:05:28.565Z,14.10
2022-08-05T05:06:40.591Z,14.00
2022-08-05T05:07:29.682Z,13.90
2022-08-05T05:08:31.498Z,13.40
2022-08-05T05:09:37.230Z,13.60
2022-08-05T05:10:40.360Z,13.30
2022-08-05T05:11:54.079Z,13.60
2022-08-05T05:12:50.621Z,13.50
2022-08-05T05:13:55.255Z,13.30
2022-08-05T05:14:57.978Z,13.90
2022-08-05T05:16:06.054Z,13.50
2022-08-05T05:17:07.355Z,14.20
2022-08-05T05:18:11.282Z,14.00
2022-08-05T05:19:23.670Z,14.20
2022-08-05T05:20:20.330Z,14.10
2022-08-05T05:21:24.554Z,13.70
2022-08-05T05:22:28.982Z,13.80
2022-08-05T05:24:01.813Z,13.80
2022-08-05T05:24:56.243Z,13.10
2022-08-05T05:25:42.262Z,12.50
2022-08-05T05:26:46.683Z,12.10
2022-08-05T05:27:53.996Z,12.30
2022-08-05T05:28:55.549Z,11.70
2022-08-05T05:30:04.669Z,12.40
2022-08-05T05:31:05.687Z,12.40
2022-08-05T05:32:12.499Z,12.80
2022-08-05T05:33:17.108Z,12.40
2022-08-05T05:34:22.528Z,14.00
2022-08-05T05:35:21.922Z,14.90
2022-08-05T05:36:28.785Z,12.80
2022-08-05T05:37:37.429Z,13.00
2022-08-05T05:38:35.145Z,13.20
2022-08-05T05:39:39.692Z,12.30
2022-08-05T05:40:49.610Z,12.10
2022-08-05T05:41:54.069Z,13.00
2022-08-05T05:42:52.768Z,13.10
2022-08-05T05:44:00.722Z,13.50
2022-08-05T05:45:02.973Z,13.70
2022-08-05T05:46:10.728Z,12.90
2022-08-05T05:47:13.183Z,13.20
2022-08-05T05:48:15.970Z,14.20
2022-08-05T05:49:23.034Z,12.80
2022-08-05T05:50:23.685Z,13.90
2022-08-05T05:51:28.296Z,13.80
2022-08-05T05:52:34.538Z,14.50
2022-08-05T05:53:54.343Z,13.80
2022-08-05T05:54:50.090Z,14.00
2022-08-05T05:55:52.430Z,14.80
2022-08-05T05:56:50.209Z,15.30
2022-08-05T05:57:54.619Z,15.30
2022-08-05T05:59:03.523Z,16.00
2022-08-05T06:00:03.456Z,16.20
2022-08-05T06:01:12.850Z,16.00
2022-08-05T06:02:12.290Z,15.60
2022-08-05T06:03:40.308Z,16.00
2022-08-05T06:04:22.073Z,16.40
2022-08-05T06:05:25.559Z,16.60
2022-08-05T06:06:33.153Z,18.00
2022-08-05T06:07:41.580Z,17.60
2022-08-05T06:08:39.661Z,18.70
2022-08-05T06:09:59.861Z,18.60
2022-08-05T06:10:52.616Z,20.70
2022-08-05T06:11:59.495Z,19.50
2022-08-05T06:12:56.509Z,20.70
2022-08-05T06:14:00.938Z,21.20
2022-08-05T06:15:05.349Z,21.90
2022-08-05T06:16:30.850Z,20.90
2022-08-05T06:17:24.562Z,22.70
2022-08-05T06:18:18.581Z,22.80
2022-08-05T06:19:33.036Z,22.90
2022-08-05T06:20:28.094Z,22.60
2022-08-05T06:21:36.657Z,22.40
2022-08-05T06:22:36.244Z,22.60
2022-08-05T06:23:44.157Z,22.30
2022-08-05T06:24:48.121Z,24.10
2022-08-05T06:26:12.446Z,23.90
2022-08-05T06:26:54.751Z,24.60
2022-08-05T06:28:11.341Z,24.60
2022-08-05T06:29:23.477Z,25.00
2022-08-05T06:30:20.107Z,25.60
2022-08-05T06:31:17.931Z,26.50
2022-08-05T06:32:25.565Z,27.60
2022-08-05T06:34:00.507Z,26.70
2022-08-05T06:34:27.761Z,28.00
2022-08-05T06:36:07.720Z,27.10
2022-08-05T06:36:53.439Z,27.30
2022-08-05T06:37:57.778Z,22.80
2022-08-05T06:38:47.034Z,23.40
2022-08-05T06:39:47.954Z,22.40
2022-08-05T06:40:52.324Z,22.50
2022-08-05T06:41:57.425Z,22.60
2022-08-05T06:43:01.137Z,21.40
2022-08-05T06:44:05.575Z,21.80
2022-08-05T06:45:09.992Z,18.70
2022-08-05T06:46:14.405Z,19.40
2022-08-05T06:48:11.348Z,20.80
2022-08-05T06:48:52.959Z,19.70
2022-08-05T06:50:02.017Z,18.70
2022-08-05T06:50:32.088Z,18.40
2022-08-05T06:51:36.498Z,18.20
2022-08-05T06:52:40.904Z,17.60
2022-08-05T06:53:45.314Z,17.90
2022-08-05T06:54:53.426Z,17.30
2022-08-05T06:55:54.263Z,17.30
2022-08-05T06:57:56.845Z,16.60
2022-08-05T06:58:29.593Z,16.70
2022-08-05T06:59:09.490Z,17.10
2022-08-05T07:00:11.845Z,17.20
2022-08-05T07:01:16.332Z,17.00
2022-08-05T07:02:22.883Z,16.50
2022-08-05T07:03:27.965Z,18.20
2022-08-05T07:04:29.525Z,17.70
2022-08-05T07:05:37.671Z,18.60
2022-08-05T07:06:38.340Z,17.60
2022-08-05T07:07:43.018Z,16.80
2022-08-05T07:08:47.857Z,16.50
2022-08-05T07:09:55.643Z,16.10
2022-08-05T07:10:55.987Z,17.80
2022-08-05T07:12:00.797Z,16.60
2022-08-05T07:13:04.800Z,17.00
2022-08-05T07:14:20.202Z,16.50
2022-08-05T07:15:13.638Z,16.20
2022-08-05T07:17:56.727Z,16.20
2022-08-05T07:18:00.822Z,15.70
2022-08-05T07:18:30.074Z,16.70
2022-08-05T07:20:10.690Z,17.60
2022-08-05T07:20:37.212Z,16.80
2022-08-05T07:22:00.510Z,16.20
2022-08-05T07:22:44.529Z,17.30
2022-08-05T07:23:49.913Z,17.30
2022-08-05T07:24:53.725Z,17.30
2022-08-05T07:25:57.809Z,15.80
2022-08-05T07:27:02.842Z,16.30
2022-08-05T07:28:09.628Z,15.80
2022-08-05T07:29:11.033Z,16.20
2022-08-05T07:30:24.084Z,15.80
2022-08-05T07:31:19.890Z,15.80
2022-08-05T07:32:26.245Z,16.30
2022-08-05T07:33:35.073Z,15.40
2022-08-05T07:34:33.157Z,15.80
2022-08-05T07:36:03.870Z,15.40
2022-08-05T07:36:41.964Z,13.20
2022-08-05T07:37:47.257Z,13.50
2022-08-05T07:38:55.033Z,13.80
2022-08-05T07:40:25.951Z,13.00
2022-08-05T07:41:16.700Z,13.90
2022-08-05T07:42:14.783Z,13.50
2022-08-05T07:43:20.352Z,13.70
2022-08-05T07:44:18.499Z,13.80
2022-08-05T07:45:17.295Z,13.60
2022-08-05T07:46:25.557Z,12.60
2022-08-05T07:47:26.135Z,13.50
2022-08-05T07:49:00.829Z,13.20
2022-08-05T07:49:34.966Z,12.60
2022-08-05T07:50:39.397Z,13.20
2022-08-05T07:51:53.103Z,13.30
2022-08-05T07:52:48.225Z,13.60
2022-08-05T07:53:52.640Z,12.60
2022-08-05T07:54:57.068Z,13.30
2022-08-05T07:56:05.500Z,12.40
2022-08-05T07:57:22.580Z,12.80
2022-08-05T07:58:17.623Z,12.30
2022-08-05T07:59:14.738Z,12.90
2022-08-05T08:00:19.189Z,12.00
2022-08-05T08:01:23.637Z,12.50
2022-08-05T08:02:31.176Z,13.60
2022-08-05T08:03:44.438Z,13.30
2022-08-05T08:04:37.366Z,13.60
2022-08-05T08:05:44.697Z,13.30
2022-08-05T08:06:45.988Z,14.30
2022-08-05T08:07:59.078Z,14.20
2022-08-05T08:08:54.809Z,14.80
2022-08-05T08:09:59.219Z,14.20
2022-08-05T08:11:03.672Z,14.70
2022-08-05T08:12:27.521Z,15.40
2022-08-05T08:13:12.493Z,14.80
2022-08-05T08:14:18.199Z,15.60
2022-08-05T08:16:33.987Z,15.80
2022-08-05T08:16:50.851Z,16.90
2022-08-05T08:17:30.297Z,17.90
2022-08-05T08:18:34.580Z,17.50
2022-08-05T08:20:21.080Z,16.90
2022-08-05T08:21:01.885Z,16.50
2022-08-05T08:21:47.859Z,16.20
2022-08-05T08:22:52.261Z,16.20
2022-08-05T08:24:02.215Z,16.30
2022-08-05T08:25:02.714Z,15.20
2022-08-05T08:26:05.522Z,15.80
2022-08-05T08:27:09.931Z,15.90
2022-08-05T08:28:18.822Z,16.10
2022-08-05T08:29:29.406Z,16.10
2022-08-05T08:30:32.583Z,15.70
2022-08-05T08:31:27.611Z,14.80
2022-08-05T08:32:32.023Z,15.20
2022-08-05T08:33:37.986Z,13.70
2022-08-05T08:34:40.851Z,13.40
2022-08-05T08:35:52.853Z,14.60
2022-08-05T08:36:54.740Z,14.20
2022-08-05T08:37:56.370Z,13.20
2022-08-05T08:38:58.579Z,13.30
2022-08-05T08:40:03.452Z,13.40
2022-08-05T08:41:08.053Z,12.80
2022-08-05T08:42:34.073Z,13.10
2022-08-05T08:44:56.502Z,13.40
2022-08-05T08:45:23.562Z,12.60
2022-08-05T08:45:29.740Z,12.40
2022-08-05T08:46:31.415Z,13.70
2022-08-05T08:48:05.702Z,12.00
2022-08-05T08:49:03.277Z,11.70
2022-08-05T08:50:22.916Z,12.10
2022-08-05T08:51:03.722Z,12.20
2022-08-05T08:52:02.983Z,13.60
2022-08-05T08:52:57.926Z,12.40
2022-08-05T08:54:02.336Z,12.60
2022-08-05T08:55:13.021Z,13.30
2022-08-05T08:56:11.189Z,12.60
2022-08-05T08:57:15.596Z,13.10
2022-08-05T08:58:20.036Z,13.20
2022-08-05T08:59:27.686Z,13.40
2022-08-05T09:00:28.949Z,13.10
2022-08-05T09:01:33.405Z,12.90
2022-08-05T09:02:37.775Z,12.60
2022-08-05T09:03:45.136Z,13.50
2022-08-05T09:04:58.571Z,12.00
2022-08-05T09:06:09.273Z,13.20
2022-08-05T09:06:55.396Z,12.90
2022-08-05T09:07:59.802Z,12.70
2022-08-05T09:09:04.201Z,12.40
2022-08-05T09:10:08.590Z,11.50
2022-08-05T09:11:13.929Z,11.00
2022-08-05T09:12:20.620Z,10.20
2022-08-05T09:13:23.476Z,11.00
2022-08-05T09:14:56.648Z,10.00
2022-08-05T09:15:30.614Z,9.40
2022-08-05T09:16:34.990Z,9.00
2022-08-05T09:17:40.737Z,8.50
2022-08-05T09:18:43.737Z,7.10
2022-08-05T09:19:55.230Z,7.70
2022-08-05T09:20:52.599Z,8.00
2022-08-05T09:22:23.341Z,7.70
2022-08-05T09:23:04.881Z,7.70
2022-08-05T09:24:05.773Z,7.30
2022-08-05T09:25:24.057Z,7.10
2022-08-05T09:26:15.847Z,6.90
2022-08-05T09:27:18.992Z,6.00
2022-08-05T09:28:23.435Z,6.80
2022-08-05T09:29:30.791Z,6.10
2022-08-05T09:30:32.261Z,6.40
2022-08-05T09:32:39.062Z,6.40
2022-08-05T09:32:46.729Z,6.00
2022-08-05T09:33:45.551Z,6.00
2022-08-05T09:34:49.979Z,5.70
2022-08-05T09:35:54.394Z,5.70
2022-08-05T09:36:59.979Z,5.60
2022-08-05T09:38:12.937Z,6.10
2022-08-05T09:39:16.611Z,5.60
2022-08-05T09:40:12.147Z,5.60
2022-08-05T09:41:16.555Z,5.40
2022-08-05T09:42:24.151Z,5.20
2022-08-05T09:43:25.331Z,5.60
2022-08-05T09:44:29.672Z,5.40
2022-08-05T09:46:06.496Z,5.60
2022-08-05T09:46:38.522Z,5.30
2022-08-05T09:47:55.089Z,5.30
2022-08-05T09:49:06.541Z,5.00
2022-08-05T09:49:55.010Z,5.10
2022-08-05T09:50:56.284Z,5.30
2022-08-05T09:52:00.746Z,5.50
2022-08-05T09:53:05.166Z,5.20
2022-08-05T09:54:10.157Z,5.50
2022-08-05T09:55:56.825Z,4.90
2022-08-05T09:56:18.447Z,5.40
2022-08-05T09:57:23.357Z,5.50
2022-08-05T09:58:29.217Z,5.10
2022-08-05T09:59:35.217Z,5.40
2022-08-05T10:00:36.186Z,5.20
2022-08-05T10:01:40.619Z,5.20
2022-08-05T10:02:45.113Z,5.10
2022-08-05T10:03:58.473Z,5.10
2022-08-05T10:04:53.917Z,4.90
2022-08-05T10:05:58.338Z,5.50
2022-08-05T10:07:19.672Z,5.20
2022-08-05T10:08:36.660Z,5.30
2022-08-05T10:09:27.811Z,5.80
2022-08-05T10:10:17.917Z,5.60
2022-08-05T10:11:20.506Z,5.90
2022-08-05T10:12:33.432Z,5.60
2022-08-05T10:13:31.628Z,5.60
2022-08-05T10:14:33.838Z,5.10
2022-08-05T10:15:38.259Z,5.20
2022-08-05T10:16:52.955Z,5.60
2022-08-05T10:17:54.617Z,5.80
2022-08-05T10:18:51.539Z,6.10
2022-08-05T10:20:04.471Z,5.60
2022-08-05T10:21:08.456Z,5.50
2022-08-05T10:22:04.795Z,5.90
2022-08-05T10:23:34.073Z,5.40
2022-08-05T10:24:14.015Z,6.10
2022-08-05T10:25:18.070Z,6.10
2022-08-05T10:26:24.244Z,5.70
2022-08-05T10:28:09.442Z,6.30
2022-08-05T10:28:31.426Z,6.40
2022-08-05T10:30:41.878Z,6.20
2022-08-05T10:32:49.066Z,5.90
2022-08-05T10:32:51.501Z,5.60
2022-08-05T10:32:59.877Z,6.00
2022-08-05T10:33:54.466Z,5.90
2022-08-05T10:34:57.904Z,5.60
2022-08-05T10:36:02.322Z,5.70
2022-08-05T10:37:06.741Z,5.60
2022-08-05T10:38:11.754Z,5.20
2022-08-05T10:39:24.824Z,5.40
2022-08-05T10:40:20.081Z,5.30
2022-08-05T10:41:24.452Z,5.20
2022-08-05T10:42:33.924Z,4.90
2022-08-05T10:43:35.786Z,5.00
2022-08-05T10:44:37.743Z,4.90
2022-08-05T10:45:42.963Z,5.60
2022-08-05T10:46:46.583Z,5.30
2022-08-05T10:48:29.948Z,5.30
2022-08-05T10:48:58.063Z,5.80
2022-08-05T10:50:20.877Z,5.60
2022-08-05T10:51:04.312Z,5.90
2022-08-05T10:52:10.479Z,5.20
2022-08-05T10:53:13.183Z,5.40
2022-08-05T10:54:28.558Z,5.40
2022-08-05T10:55:22.031Z,5.30
2022-08-05T10:56:26.492Z,5.50
2022-08-05T10:57:33.957Z,5.20
2022-08-05T10:58:35.902Z,5.50
2022-08-05T11:00:02.547Z,6.20
2022-08-05T11:00:44.216Z,5.00
2022-08-05T11:01:54.560Z,6.90
2022-08-05T11:02:53.032Z,5.40
2022-08-05T11:03:57.495Z,5.20
2022-08-05T11:05:01.885Z,5.50
2022-08-05T11:06:06.296Z,5.10
2022-08-05T11:07:10.724Z,5.70
2022-08-05T11:08:36.567Z,5.90
2022-08-05T11:09:32.500Z,5.20
2022-08-05T11:10:27.409Z,5.70
2022-08-05T11:11:41.984Z,5.30
2022-08-05T11:12:33.118Z,5.20
2022-08-05T11:13:37.398Z,4.80
2022-08-05T11:16:00.453Z,4.90
2022-08-05T11:16:57.093Z,4.90
2022-08-05T11:18:00.179Z,4.40
2022-08-05T11:18:59.522Z,3.80
2022-08-05T11:20:11.466Z,3.70
2022-08-05T11:21:12.033Z,3.70
2022-08-05T11:22:12.768Z,3.90
2022-08-05T11:23:17.211Z,3.80
2022-08-05T11:24:30.014Z,4.00
2022-08-05T11:26:05.040Z,3.70
2022-08-05T11:26:32.594Z,3.50
2022-08-05T11:27:50.981Z,3.80
2022-08-05T11:28:39.309Z,3.50
2022-08-05T11:29:43.733Z,3.20
2022-08-05T11:30:48.139Z,3.50
2022-08-05T11:31:56.447Z,3.70
2022-08-05T11:32:56.971Z,3.20
2022-08-05T11:34:01.412Z,3.20
2022-08-05T11:35:05.838Z,3.10
2022-08-05T11:36:10.256Z,3.10
2022-08-05T11:38:28.240Z,3.00
2022-08-05T11:38:29.411Z,2.70
2022-08-05T11:39:23.618Z,2.80
2022-08-05T11:40:27.942Z,3.10
2022-08-05T11:41:56.329Z,2.30
2022-08-05T11:42:38.108Z,2.40
2022-08-05T11:44:05.026Z,2.70
2022-08-05T11:44:53.695Z,2.50
2022-08-05T11:46:30.606Z,2.60
2022-08-05T11:47:09.996Z,2.20
2022-08-05T11:47:58.906Z,2.10
2022-08-05T11:49:03.317Z,1.70
2022-08-05T11:50:07.766Z,2.20
2022-08-05T11:51:12.139Z,2.10
2022-08-05T11:52:16.556Z,2.10
2022-08-05T11:53:21.048Z,1.80
2022-08-05T11:54:33.861Z,2.10
2022-08-05T11:55:31.992Z,2.30
2022-08-05T11:56:41.144Z,2.20
2022-08-05T11:58:08.186Z,1.90
2022-08-05T11:58:43.076Z,2.10
2022-08-05T11:59:50.410Z,1.90
2022-08-05T12:00:52.786Z,2.20
2022-08-05T12:01:56.325Z,2.40
2022-08-05T12:03:00.764Z,2.50
2022-08-05T12:04:05.164Z,2.20
2022-08-05T12:05:18.328Z,2.20
2022-08-05T12:06:13.964Z,2.60
2022-08-05T12:07:18.365Z,2.40
2022-08-05T12:08:22.775Z,2.30
2022-08-05T12:09:52.978Z,2.60
2022-08-05T12:10:43.567Z,2.60
2022-08-05T12:11:40.318Z,2.40
2022-08-05T12:12:58.265Z,2.70
2022-08-05T12:13:49.303Z,2.50
2022-08-05T12:14:49.288Z,2.70
2022-08-05T12:15:55.887Z,2.30
2022-08-05T12:16:58.107Z,2.50
2022-08-05T12:18:09.898Z,2.10
2022-08-05T12:19:08.418Z,2.90
2022-08-05T12:20:27.554Z,2.40
2022-08-05T12:21:15.760Z,2.60
2022-08-05T12:22:20.258Z,2.50
2022-08-05T12:23:24.579Z,2.40
2022-08-05T12:24:29.970Z,2.50
2022-08-05T12:25:33.421Z,2.50
2022-08-05T12:26:37.828Z,2.00
2022-08-05T12:27:52.743Z,2.40
2022-08-05T12:28:46.630Z,2.10
2022-08-05T12:29:56.785Z,1.90
2022-08-05T12:30:55.489Z,2.10
2022-08-05T12:32:02.150Z,2.50
2022-08-05T12:33:07.235Z,2.10
2022-08-05T12:34:08.709Z,2.40
2022-08-05T12:35:13.128Z,2.10
2022-08-05T12:36:17.585Z,2.30
2022-08-05T12:37:21.987Z,2.00
2022-08-05T12:38:30.239Z,2.00
2022-08-05T12:39:34.529Z,2.20
2022-08-05T12:40:35.232Z,1.90
2022-08-05T12:41:43.690Z,1.80
2022-08-05T12:42:44.032Z,2.10
2022-08-05T12:43:48.432Z,1.90
2022-08-05T12:44:52.861Z,2.00
2022-08-05T12:45:57.262Z,2.10
2022-08-05T12:47:02.063Z,2.00
2022-08-05T12:48:27.679Z,1.90
2022-08-05T12:49:13.147Z,1.90
2022-08-05T12:50:14.902Z,1.70
2022-08-05T12:52:10.777Z,2.10
2022-08-05T12:52:26.738Z,1.90
2022-08-05T12:53:37.155Z,1.60
2022-08-05T12:54:32.554Z,1.40
2022-08-05T12:55:36.982Z,1.60
2022-08-05T12:56:41.372Z,1.80
2022-08-05T12:58:38.337Z,1.70
2022-08-05T12:58:55.729Z,2.50
2022-08-05T13:01:58.473Z,1.80
2022-08-05T13:02:01.382Z,1.90
2022-08-05T13:02:06.623Z,1.80
2022-08-05T13:03:07.748Z,1.90
2022-08-05T13:04:12.134Z,1.80
2022-08-05T13:05:16.548Z,1.90
2022-08-05T13:06:20.938Z,1.30
2022-08-05T13:07:55.804Z,1.60
2022-08-05T13:08:29.722Z,1.80
2022-08-05T13:09:34.105Z,1.80
2022-08-05T13:10:38.534Z,2.10
2022-08-05T13:12:01.436Z,1.70
2022-08-05T13:12:51.221Z,1.80
2022-08-05T13:14:05.368Z,1.80
2022-08-05T13:14:59.178Z,1.80
2022-08-05T13:16:00.527Z,1.60
2022-08-05T13:17:04.904Z,2.00
2022-08-05T13:18:09.307Z,1.60
2022-08-05T13:19:14.538Z,1.60
2022-08-05T13:20:23.428Z,1.60
2022-08-05T13:21:23.327Z,2.00
2022-08-05T13:22:29.976Z,1.40
2022-08-05T13:23:32.128Z,1.40
2022-08-05T13:24:57.727Z,1.60
2022-08-05T13:25:52.033Z,1.60
2022-08-05T13:26:50.663Z,1.60
2022-08-05T13:27:50.280Z,1.50
2022-08-05T13:28:54.098Z,1.50
2022-08-05T13:30:33.150Z,1.40
2022-08-05T13:31:03.409Z,1.60
2022-08-05T13:32:07.349Z,1.20
2022-08-05T13:33:11.751Z,1.50
2022-08-05T13:34:24.492Z,1.50
2022-08-05T13:35:22.166Z,1.90
2022-08-05T13:36:24.935Z,1.60
2022-08-05T13:37:34.740Z,1.60
2022-08-05T13:38:36.355Z,1.60
2022-08-05T13:40:16.473Z,1.40
2022-08-05T13:40:49.976Z,1.40
2022-08-05T13:41:46.901Z,1.50
2022-08-05T13:42:55.656Z,1.60
2022-08-05T13:43:55.679Z,1.40
2022-08-05T13:45:00.070Z,1.40
2022-08-05T13:46:04.488Z,1.40
2022-08-05T13:47:09.344Z,1.30
2022-08-05T13:48:58.178Z,1.40
2022-08-05T13:49:17.651Z,1.50
2022-08-05T13:50:22.062Z,1.70
2022-08-05T13:51:26.452Z,1.40
2022-08-05T13:52:30.842Z,1.70
2022-08-05T13:53:35.244Z,1.50
2022-08-05T13:54:39.628Z,1.40
2022-08-05T13:55:49.237Z,1.40
2022-08-05T13:56:50.722Z,1.30
2022-08-05T13:57:52.831Z,1.30
2022-08-05T13:58:57.206Z,1.40
2022-08-05T14:00:01.875Z,1.30
2022-08-05T14:01:06.001Z,1.30
2022-08-05T14:02:10.385Z,1.20
2022-08-05T14:03:14.791Z,1.40
2022-08-05T14:04:19.149Z,1.10
2022-08-05T14:05:48.096Z,1.30
2022-08-05T14:06:27.942Z,1.30
2022-08-05T14:08:01.174Z,1.40
2022-08-05T14:08:36.934Z,1.30
2022-08-05T14:09:42.831Z,1.20
2022-08-05T14:10:45.476Z,1.40
2022-08-05T14:12:00.305Z,1.40
2022-08-05T14:12:54.542Z,1.10
2022-08-05T14:13:58.663Z,1.50
2022-08-05T14:15:05.903Z,1.20
2022-08-05T14:16:11.397Z,1.20
2022-08-05T14:17:17.660Z,1.00
2022-08-05T14:18:18.255Z,1.30
2022-08-05T14:19:20.617Z,1.50
2022-08-05T14:20:27.359Z,1.30
2022-08-05T14:22:08.647Z,1.40
2022-08-05T14:22:34.239Z,1.60
2022-08-05T14:23:38.176Z,1.30
2022-08-05T14:24:42.566Z,1.50
2022-08-05T14:25:51.466Z,1.60
2022-08-05T14:27:02.288Z,1.40